Time;durP1;ratioP1;P1;durP2;ratioP2;P2;SDS_P1;SDS_P2;PMS_P1;PMS_P2;Temp;Humidity;BMP_temperature;BMP_pressure;BME280_temperature;BME280_humidity;BME280_pressure;Samples;Min_cycle;Max_cycle;Signal;HPM_P1;HPM_P2
2023/07/26 00:00:12;;;;;;;4.55;2.30;;;13.80;99.90;;;;;;5092193;28;20044;-59
2023/07/26 00:02:37;;;;;;;3.05;1.80;;;13.90;99.90;;;;;;5092315;28;20024;-58
2023/07/26 00:05:04;;;;;;;4.30;1.60;;;13.90;99.90;;;;;;5092172;28;20040;-57
2023/07/26 00:07:29;;;;;;;2.75;1.70;;;13.90;99.90;;;;;;5105711;28;20084;-57
2023/07/26 00:09:55;;;;;;;5.28;1.70;;;13.90;99.90;;;;;;5112371;28;20399;-57
2023/07/26 00:12:20;;;;;;;7.65;1.95;;;13.90;99.90;;;;;;5112397;28;20546;-58
2023/07/26 00:14:46;;;;;;;4.78;1.63;;;13.90;99.90;;;;;;5112377;28;20032;-57
2023/07/26 00:17:12;;;;;;;3.33;1.90;;;13.90;99.90;;;;;;5112809;28;20035;-57
2023/07/26 00:19:37;;;;;;;12.05;1.77;;;13.90;99.90;;;;;;5112310;28;20044;-57
2023/07/26 00:22:03;;;;;;;4.65;1.90;;;13.90;99.90;;;;;;5112564;28;20042;-57
2023/07/26 00:24:29;;;;;;;5.45;1.90;;;13.80;99.90;;;;;;5112342;28;20055;-56
2023/07/26 00:26:55;;;;;;;7.80;2.17;;;13.80;99.90;;;;;;5094748;28;20024;-57
2023/07/26 00:29:20;;;;;;;3.90;2.00;;;13.80;99.90;;;;;;5092246;28;20432;-57
2023/07/26 00:31:46;;;;;;;4.40;1.83;;;13.70;99.90;;;;;;5092085;28;20091;-58
2023/07/26 00:34:12;;;;;;;7.70;2.28;;;13.70;99.90;;;;;;5091979;28;20116;-58
2023/07/26 00:36:37;;;;;;;3.42;1.90;;;13.70;99.90;;;;;;5091772;28;20036;-58
2023/07/26 00:39:03;;;;;;;6.10;1.80;;;13.60;99.90;;;;;;5091627;28;20055;-58
2023/07/26 00:41:29;;;;;;;5.00;2.17;;;13.60;99.90;;;;;;5091976;28;20039;-57
2023/07/26 00:43:55;;;;;;;6.55;2.33;;;13.60;99.90;;;;;;5094485;28;20053;-56
2023/07/26 00:46:21;;;;;;;3.13;1.50;;;13.60;99.90;;;;;;5096063;28;20385;-58
2023/07/26 00:48:47;;;;;;;6.55;2.05;;;13.60;99.90;;;;;;5096111;28;20036;-58
2023/07/26 00:51:13;;;;;;;3.33;1.85;;;13.50;99.90;;;;;;5095713;28;20036;-57
2023/07/26 00:53:39;;;;;;;3.65;2.85;;;13.60;99.90;;;;;;5095796;28;20061;-58
2023/07/26 00:56:05;;;;;;;3.42;2.40;;;13.60;99.90;;;;;;5095758;28;20028;-57
2023/07/26 00:58:31;;;;;;;6.97;2.15;;;13.60;99.90;;;;;;5095829;28;20418;-58
2023/07/26 01:00:58;;;;;;;4.00;1.92;;;13.60;99.90;;;;;;5095612;28;20107;-57
2023/07/26 01:03:24;;;;;;;3.08;2.30;;;13.60;99.90;;;;;;5094447;28;20040;-58
2023/07/26 01:06:28;;;;;;;5.53;2.35;;;13.70;99.90;;;;;;5095560;28;20390;-57
2023/07/26 01:09:00;;;;;;;3.75;2.35;;;13.70;99.90;;;;;;5095841;28;20040;-58
2023/07/26 01:11:40;;;;;;;4.05;2.40;;;13.70;99.90;;;;;;5095497;28;20066;-58
2023/07/26 01:14:15;;;;;;;5.15;2.60;;;13.70;99.90;;;;;;5095715;28;20119;-58
2023/07/26 01:16:41;;;;;;;3.92;2.30;;;13.80;99.90;;;;;;5082131;28;20050;-58
2023/07/26 01:19:07;;;;;;;5.20;2.63;;;13.60;99.90;;;;;;5095607;28;20139;-57
2023/07/26 01:21:33;;;;;;;3.13;2.45;;;13.70;99.90;;;;;;5095363;28;20522;-58
2023/07/26 01:23:59;;;;;;;4.68;2.65;;;13.70;99.90;;;;;;5095350;28;20048;-59
2023/07/26 01:26:25;;;;;;;5.53;2.63;;;13.60;99.90;;;;;;5095598;28;20066;-58
2023/07/26 01:28:51;;;;;;;7.05;2.72;;;13.60;99.90;;;;;;5095258;28;20055;-59
2023/07/26 01:31:18;;;;;;;6.15;2.40;;;13.60;99.90;;;;;;5095864;28;20085;-59
2023/07/26 01:33:48;;;;;;;8.23;2.80;;;13.60;99.90;;;;;;5095448;28;20407;-59
2023/07/26 01:36:15;;;;;;;9.18;3.20;;;13.50;99.90;;;;;;5095157;28;20055;-59
2023/07/26 01:38:42;;;;;;;10.10;2.40;;;13.40;99.90;;;;;;5094993;28;20047;-59
2023/07/26 01:41:09;;;;;;;6.95;2.50;;;13.40;99.90;;;;;;5095150;28;20047;-59
2023/07/26 01:43:37;;;;;;;6.50;2.50;;;13.30;99.90;;;;;;5094900;28;20063;-59
2023/07/26 01:46:03;;;;;;;12.93;3.10;;;13.20;99.90;;;;;;5095229;28;20459;-59
2023/07/26 01:48:28;;;;;;;4.60;2.10;;;13.20;99.90;;;;;;5095049;28;20071;-59
2023/07/26 01:50:54;;;;;;;4.00;2.50;;;13.20;99.90;;;;;;5094942;28;20048;-59
2023/07/26 01:53:19;;;;;;;3.42;2.22;;;13.20;99.90;;;;;;5076850;28;20783;-59
2023/07/26 01:55:46;;;;;;;6.15;2.45;;;13.20;99.90;;;;;;5093077;28;20043;-58
2023/07/26 01:58:12;;;;;;;4.75;2.80;;;13.10;99.90;;;;;;5094754;28;20036;-59
2023/07/26 02:00:37;;;;;;;5.57;2.80;;;13.20;99.90;;;;;;5094724;28;20100;-58
2023/07/26 02:03:03;;;;;;;6.95;2.58;;;13.10;99.90;;;;;;5094726;28;20505;-58
2023/07/26 02:05:29;;;;;;;4.95;2.58;;;13.10;99.90;;;;;;5094793;28;20043;-58
2023/07/26 02:07:54;;;;;;;3.25;2.60;;;13.00;99.90;;;;;;5098593;28;20036;-58
2023/07/26 02:10:21;;;;;;;6.03;2.72;;;13.10;99.90;;;;;;5114691;28;20052;-58
2023/07/26 02:12:47;;;;;;;5.13;3.05;;;13.00;99.90;;;;;;5114522;28;20043;-58
2023/07/26 02:15:12;;;;;;;5.05;2.53;;;13.00;99.90;;;;;;5114932;28;20106;-58
2023/07/26 02:17:38;;;;;;;6.50;2.90;;;13.00;99.90;;;;;;5114868;28;20105;-58
2023/07/26 02:20:04;;;;;;;4.68;2.53;;;12.90;99.90;;;;;;5114695;28;20035;-59
2023/07/26 02:22:30;;;;;;;6.60;2.53;;;12.90;99.90;;;;;;5113464;28;20043;-58
2023/07/26 02:24:55;;;;;;;6.28;2.75;;;12.90;99.90;;;;;;5114212;27;20493;-59
2023/07/26 02:27:21;;;;;;;7.78;3.17;;;12.90;99.90;;;;;;5114481;28;20043;-58
2023/07/26 02:29:47;;;;;;;6.47;2.55;;;12.80;99.90;;;;;;5114509;28;20041;-59
2023/07/26 02:32:12;;;;;;;4.13;2.80;;;12.80;99.90;;;;;;5114737;28;20115;-58
2023/07/26 02:34:38;;;;;;;6.82;3.22;;;12.80;99.90;;;;;;5113536;28;20047;-58
2023/07/26 02:37:04;;;;;;;3.92;3.20;;;12.70;99.90;;;;;;5114613;28;20564;-58
2023/07/26 02:39:30;;;;;;;9.88;3.13;;;12.70;99.90;;;;;;5114577;28;20085;-58
2023/07/26 02:41:55;;;;;;;6.03;2.92;;;12.70;99.90;;;;;;5114358;28;20051;-58
2023/07/26 02:44:21;;;;;;;8.60;3.17;;;12.80;99.90;;;;;;5114541;28;20078;-58
2023/07/26 02:46:47;;;;;;;7.10;3.08;;;12.70;99.90;;;;;;5114024;28;20039;-58
2023/07/26 02:49:13;;;;;;;8.90;3.70;;;12.60;99.90;;;;;;5114101;28;20469;-58
2023/07/26 02:51:39;;;;;;;5.93;3.10;;;12.60;99.90;;;;;;5113716;28;20039;-58
2023/07/26 02:54:05;;;;;;;5.95;2.92;;;12.70;99.90;;;;;;5114022;28;20119;-59
2023/07/26 02:56:30;;;;;;;6.85;3.03;;;12.60;99.90;;;;;;5113982;28;20039;-59
2023/07/26 02:58:56;;;;;;;4.55;3.40;;;12.50;99.90;;;;;;5113590;28;20047;-59
2023/07/26 03:01:21;;;;;;;7.65;3.08;;;12.50;99.90;;;;;;5113935;28;20039;-58
2023/07/26 03:03:47;;;;;;;6.55;3.30;;;12.50;99.90;;;;;;5113776;28;20042;-59
2023/07/26 03:06:13;;;;;;;6.30;3.65;;;12.50;99.90;;;;;;5113015;28;20374;-59
2023/07/26 03:08:38;;;;;;;8.65;3.42;;;12.50;99.90;;;;;;5113331;28;20074;-59
2023/07/26 03:11:04;;;;;;;7.18;3.22;;;12.50;99.90;;;;;;5113472;28;20054;-58
2023/07/26 03:13:29;;;;;;;5.05;3.20;;;12.50;99.90;;;;;;5113999;28;20043;-59
2023/07/26 03:15:55;;;;;;;6.88;3.75;;;12.40;99.90;;;;;;5114242;28;20043;-58
2023/07/26 03:18:21;;;;;;;4.90;3.47;;;12.50;99.90;;;;;;5113753;28;20039;-59
2023/07/26 03:20:47;;;;;;;9.77;3.15;;;12.50;99.90;;;;;;5113277;28;20046;-58
2023/07/26 03:23:13;;;;;;;7.88;3.42;;;12.40;99.90;;;;;;5113380;28;20035;-58
2023/07/26 03:25:40;;;;;;;5.55;3.38;;;12.50;99.90;;;;;;5112074;28;20044;-58
2023/07/26 03:28:06;;;;;;;9.43;3.10;;;12.40;99.90;;;;;;5113557;28;20031;-58
2023/07/26 03:30:32;;;;;;;4.63;3.47;;;12.40;99.90;;;;;;5113717;28;20092;-58
2023/07/26 03:32:57;;;;;;;6.47;3.50;;;12.30;99.90;;;;;;5113353;28;20028;-59
2023/07/26 03:35:23;;;;;;;4.00;3.33;;;12.30;99.90;;;;;;5113846;28;20067;-58
2023/07/26 03:37:48;;;;;;;6.15;3.15;;;12.20;99.90;;;;;;5129499;27;20432;-59
2023/07/26 03:40:14;;;;;;;6.53;3.58;;;12.30;99.90;;;;;;5113304;28;20473;-58
2023/07/26 03:42:40;;;;;;;6.32;2.70;;;12.30;99.90;;;;;;5113295;28;20465;-59
2023/07/26 03:45:06;;;;;;;6.95;2.78;;;12.40;99.90;;;;;;5113625;28;20115;-59
2023/07/26 03:47:32;;;;;;;5.93;3.35;;;12.40;99.90;;;;;;5113430;28;20107;-59
2023/07/26 03:49:59;;;;;;;7.43;3.22;;;12.40;99.90;;;;;;5113788;28;20114;-59
2023/07/26 03:52:25;;;;;;;8.18;3.33;;;12.40;99.90;;;;;;5113439;28;20035;-59
2023/07/26 03:54:51;;;;;;;7.07;2.97;;;12.50;99.90;;;;;;5113119;28;20177;-58
2023/07/26 03:57:16;;;;;;;4.05;3.65;;;12.50;99.90;;;;;;5113661;28;20469;-58
2023/07/26 03:59:42;;;;;;;3.75;3.17;;;12.50;99.90;;;;;;5113222;28;20431;-59
2023/07/26 04:02:08;;;;;;;7.70;3.22;;;12.40;99.90;;;;;;5113354;28;20039;-59
2023/07/26 04:04:35;;;;;;;6.78;3.63;;;12.40;99.90;;;;;;5094799;28;20066;-59
2023/07/26 04:07:02;;;;;;;6.93;3.42;;;12.50;99.90;;;;;;5113807;28;20377;-59
2023/07/26 04:09:27;;;;;;;7.00;3.25;;;12.50;99.90;;;;;;5113181;28;20039;-59
2023/07/26 04:11:55;;;;;;;7.57;3.60;;;12.50;99.90;;;;;;5112625;28;20047;-59
2023/07/26 04:14:21;;;;;;;6.68;3.38;;;12.50;99.90;;;;;;5112624;28;20050;-59
2023/07/26 04:16:47;;;;;;;5.45;3.30;;;12.50;99.90;;;;;;5112929;28;20035;-58
2023/07/26 04:19:13;;;;;;;7.32;2.92;;;12.40;99.90;;;;;;5112656;28;20503;-57
2023/07/26 04:21:38;;;;;;;6.05;3.45;;;12.40;99.90;;;;;;5113227;28;20449;-58
2023/07/26 04:24:04;;;;;;;5.82;3.67;;;12.40;99.90;;;;;;5113092;28;20050;-58
2023/07/26 04:26:30;;;;;;;7.57;3.83;;;12.50;99.90;;;;;;5112919;28;20093;-58
2023/07/26 04:28:56;;;;;;;4.07;3.17;;;12.50;99.90;;;;;;5112996;28;20063;-58
2023/07/26 04:31:21;;;;;;;8.73;3.78;;;12.60;99.90;;;;;;5113439;28;20043;-59
2023/07/26 04:33:48;;;;;;;5.57;4.00;;;12.50;99.90;;;;;;5113022;28;20047;-59
2023/07/26 04:36:14;;;;;;;5.85;3.58;;;12.60;99.90;;;;;;5113444;28;20031;-59
2023/07/26 04:38:40;;;;;;;7.10;4.00;;;12.50;99.90;;;;;;5112857;28;20077;-59
2023/07/26 04:41:05;;;;;;;6.40;3.75;;;12.50;99.90;;;;;;5113036;28;20473;-58
2023/07/26 04:43:31;;;;;;;6.22;3.83;;;12.60;99.90;;;;;;5111515;28;20081;-58
2023/07/26 04:45:57;;;;;;;7.53;4.22;;;12.60;99.90;;;;;;5112768;28;20024;-58
2023/07/26 04:48:23;;;;;;;7.75;3.50;;;12.60;99.90;;;;;;5112978;28;20362;-58
2023/07/26 04:50:49;;;;;;;5.15;3.58;;;12.60;99.90;;;;;;5113006;28;20044;-58
2023/07/26 04:53:16;;;;;;;6.20;3.58;;;12.60;99.90;;;;;;5113048;28;20078;-58
2023/07/26 04:55:44;;;;;;;6.15;3.92;;;12.70;99.90;;;;;;5112825;28;20056;-59
2023/07/26 04:58:09;;;;;;;8.13;3.50;;;12.70;99.90;;;;;;5112796;28;20482;-58
2023/07/26 05:00:38;;;;;;;10.98;3.92;;;12.80;99.90;;;;;;5112809;28;20046;-58
2023/07/26 05:03:04;;;;;;;;;;;12.80;99.90;;;;;;5112807;28;20106;-58
2023/07/26 05:05:30;;;;;;;9.52;4.30;;;12.90;99.90;;;;;;5112872;28;20020;-58
2023/07/26 05:07:56;;;;;;;4.95;3.75;;;13.00;99.90;;;;;;5112790;28;20038;-57
2023/07/26 05:10:23;;;;;;;6.07;3.78;;;13.20;99.90;;;;;;5112497;28;20127;-57
2023/07/26 05:12:49;;;;;;;8.07;4.45;;;13.30;99.90;;;;;;5112474;28;20096;-58
2023/07/26 05:15:14;;;;;;;5.13;3.60;;;13.30;99.90;;;;;;5112431;28;20485;-58
2023/07/26 05:17:40;;;;;;;4.68;3.63;;;13.40;99.90;;;;;;5112254;28;20114;-58
2023/07/26 05:20:06;;;;;;;8.02;3.83;;;13.50;99.90;;;;;;5112191;28;20106;-57
2023/07/26 05:22:32;;;;;;;9.60;4.13;;;13.50;99.90;;;;;;5111542;28;20036;-57
2023/07/26 05:24:57;;;;;;;7.53;3.63;;;13.50;99.90;;;;;;5112324;28;20047;-57
2023/07/26 05:27:23;;;;;;;8.07;3.40;;;13.50;99.90;;;;;;5111991;28;20096;-57
2023/07/26 05:29:49;;;;;;;7.53;3.88;;;13.50;99.90;;;;;;5112599;28;20473;-57
2023/07/26 05:32:14;;;;;;;8.27;3.40;;;13.50;99.90;;;;;;5115773;28;20123;-58
2023/07/26 05:34:40;;;;;;;4.90;3.50;;;13.60;99.90;;;;;;5115568;28;20122;-58
2023/07/26 05:37:05;;;;;;;6.18;4.10;;;13.60;99.90;;;;;;5115433;28;20427;-58
2023/07/26 05:39:32;;;;;;;7.18;3.60;;;13.70;99.90;;;;;;5115749;28;20379;-58
2023/07/26 05:41:58;;;;;;;7.70;3.70;;;13.80;99.90;;;;;;5115340;28;20087;-58
2023/07/26 05:44:23;;;;;;;8.40;3.78;;;13.80;99.90;;;;;;5114499;27;20076;-58
2023/07/26 05:46:49;;;;;;;8.32;3.28;;;13.70;99.90;;;;;;5116392;28;20044;-58
2023/07/26 05:49:14;;;;;;;7.70;2.60;;;13.80;99.90;;;;;;5114906;28;20067;-59
2023/07/26 05:51:40;;;;;;;7.22;2.70;;;13.70;99.90;;;;;;5116093;28;20512;-58
2023/07/26 05:54:06;;;;;;;5.15;2.50;;;13.80;99.90;;;;;;5115326;28;20393;-58
2023/07/26 05:56:31;;;;;;;5.55;2.50;;;13.80;99.90;;;;;;5115524;28;20043;-58
2023/07/26 05:58:57;;;;;;;6.25;2.75;;;13.80;99.90;;;;;;5114172;28;20587;-58
2023/07/26 06:01:22;;;;;;;6.38;1.95;;;13.80;99.90;;;;;;5115206;28;20042;-58
2023/07/26 06:03:48;;;;;;;4.95;2.38;;;13.80;99.90;;;;;;5114851;28;20038;-57
2023/07/26 06:06:14;;;;;;;4.70;2.17;;;13.80;99.90;;;;;;5115374;28;20028;-58
2023/07/26 06:08:40;;;;;;;3.45;1.77;;;13.80;99.90;;;;;;5115402;28;20093;-59
2023/07/26 06:11:05;;;;;;;2.70;2.05;;;13.70;99.90;;;;;;5115102;28;20093;-58
2023/07/26 06:13:31;;;;;;;5.20;2.33;;;13.70;99.90;;;;;;5115248;28;20388;-58
2023/07/26 06:15:56;;;;;;;2.80;1.77;;;13.70;99.90;;;;;;5114854;28;20534;-58
2023/07/26 06:18:22;;;;;;;7.13;2.10;;;13.70;99.90;;;;;;5114652;28;20039;-58
2023/07/26 06:20:48;;;;;;;3.88;1.85;;;13.70;99.90;;;;;;5114448;28;20043;-58
2023/07/26 06:23:14;;;;;;;3.80;2.25;;;13.70;99.90;;;;;;5114710;28;20040;-58
2023/07/26 06:25:39;;;;;;;2.95;2.22;;;13.60;99.90;;;;;;5114339;28;20405;-58
2023/07/26 06:28:05;;;;;;;2.30;1.90;;;13.70;99.90;;;;;;5115091;27;20047;-58
2023/07/26 06:30:31;;;;;;;3.85;2.50;;;13.80;99.90;;;;;;5114538;28;20045;-58
2023/07/26 06:32:57;;;;;;;2.95;2.00;;;13.80;99.90;;;;;;5114584;28;20055;-57
2023/07/26 06:35:22;;;;;;;6.65;2.50;;;13.90;99.90;;;;;;5114458;28;20043;-58
2023/07/26 06:37:48;;;;;;;5.50;2.22;;;13.90;99.90;;;;;;5096748;28;20108;-58
2023/07/26 06:40:14;;;;;;;6.15;2.95;;;14.00;99.90;;;;;;5114614;28;20043;-57
2023/07/26 06:42:39;;;;;;;5.60;2.25;;;14.10;99.90;;;;;;5114409;28;20410;-58
2023/07/26 06:45:06;;;;;;;5.45;2.20;;;14.40;99.90;;;;;;5114387;28;20035;-58
2023/07/26 06:47:31;;;;;;;5.45;2.03;;;14.50;99.90;;;;;;5114632;28;20031;-58
2023/07/26 06:49:57;;;;;;;4.78;2.20;;;14.60;99.90;;;;;;5114399;28;20568;-57
2023/07/26 06:52:22;;;;;;;4.53;2.47;;;14.60;99.90;;;;;;5114460;28;20031;-57
2023/07/26 06:54:48;;;;;;;5.63;2.15;;;14.70;99.90;;;;;;5114447;28;20035;-58
2023/07/26 06:57:14;;;;;;;5.00;2.08;;;14.70;99.90;;;;;;5114414;28;20118;-58
2023/07/26 06:59:40;;;;;;;4.18;1.77;;;14.80;99.90;;;;;;5114459;28;20535;-58
2023/07/26 07:02:06;;;;;;;4.32;1.92;;;15.00;99.90;;;;;;5114045;28;20071;-58
2023/07/26 07:04:35;;;;;;;3.90;1.65;;;15.00;99.90;;;;;;5114317;28;20088;-58
2023/07/26 07:07:00;;;;;;;5.70;2.00;;;15.10;99.90;;;;;;5114320;28;20045;-57
2023/07/26 07:09:26;;;;;;;6.35;2.30;;;15.10;99.90;;;;;;5114225;27;20036;-58
2023/07/26 07:11:52;;;;;;;4.57;2.28;;;15.10;99.90;;;;;;5114115;28;20039;-58
2023/07/26 07:14:18;;;;;;;5.90;2.20;;;15.10;99.90;;;;;;5114403;28;20043;-59
2023/07/26 07:16:44;;;;;;;4.15;1.90;;;15.10;99.90;;;;;;5113758;27;20054;-57
2023/07/26 07:19:09;;;;;;;3.65;2.28;;;15.20;99.90;;;;;;5114319;28;20035;-58
2023/07/26 07:21:35;;;;;;;3.80;2.20;;;15.10;99.90;;;;;;5114178;28;20040;-58
2023/07/26 07:24:01;;;;;;;3.45;1.90;;;15.30;99.90;;;;;;5113882;28;20455;-58
2023/07/26 07:26:26;;;;;;;4.20;2.03;;;15.30;99.90;;;;;;5113790;28;20043;-58
2023/07/26 07:28:52;;;;;;;2.83;1.63;;;15.60;99.90;;;;;;5112564;28;20036;-58
2023/07/26 07:31:18;;;;;;;2.70;1.88;;;16.10;99.90;;;;;;5113572;28;20043;-58
2023/07/26 07:33:43;;;;;;;2.88;1.70;;;16.40;99.90;;;;;;5113785;28;20382;-58
2023/07/26 07:36:12;;;;;;;3.83;1.88;;;16.80;99.90;;;;;;5113876;28;20043;-58
2023/07/26 07:38:38;;;;;;;5.32;2.03;;;17.00;99.90;;;;;;5113645;28;20038;-57
2023/07/26 07:41:03;;;;;;;4.13;1.77;;;17.50;99.90;;;;;;5113348;28;20477;-58
2023/07/26 07:43:29;;;;;;;3.92;1.77;;;17.70;99.90;;;;;;5113505;28;20031;-57
2023/07/26 07:45:55;;;;;;;4.15;1.88;;;17.80;99.90;;;;;;5113156;28;20035;-58
2023/07/26 07:48:20;;;;;;;4.22;1.67;;;18.10;99.90;;;;;;5113624;28;20063;-58
2023/07/26 07:50:54;;;;;;;4.35;1.30;;;18.20;99.90;;;;;;5113427;27;20039;-57
2023/07/26 07:53:19;;;;;;;3.50;1.13;;;18.40;99.90;;;;;;5112663;28;20044;-57
2023/07/26 07:55:45;;;;;;;4.00;1.52;;;18.70;99.90;;;;;;5113052;28;20093;-57
2023/07/26 07:58:10;;;;;;;1.00;0.90;;;18.70;99.90;;;;;;5113215;28;20051;-57
2023/07/26 08:00:36;;;;;;;1.80;0.80;;;18.80;99.90;;;;;;5112980;28;20129;-57
2023/07/26 08:03:03;;;;;;;1.00;0.90;;;18.90;99.90;;;;;;5111786;28;20495;-58
2023/07/26 08:05:29;;;;;;;1.17;0.90;;;18.90;99.90;;;;;;5113127;28;20059;-58
2023/07/26 08:07:54;;;;;;;4.15;1.05;;;18.90;99.90;;;;;;5111773;28;20422;-57
2023/07/26 08:10:21;;;;;;;2.42;1.35;;;19.00;99.90;;;;;;5112885;28;20095;-57
2023/07/26 08:12:46;;;;;;;2.20;1.60;;;19.10;99.90;;;;;;5112827;28;20067;-57
2023/07/26 08:15:13;;;;;;;2.38;1.50;;;19.10;99.90;;;;;;5113177;28;20067;-58
2023/07/26 08:17:39;;;;;;;2.25;1.40;;;19.20;99.90;;;;;;5113085;28;20042;-57
2023/07/26 08:20:05;;;;;;;2.58;1.10;;;19.70;99.90;;;;;;5113002;28;20090;-57
2023/07/26 08:22:31;;;;;;;1.60;1.30;;;20.00;99.90;;;;;;5112752;28;20042;-57
2023/07/26 08:24:57;;;;;;;2.55;1.40;;;20.00;99.90;;;;;;5112703;28;20052;-58
2023/07/26 08:27:23;;;;;;;2.10;1.10;;;20.00;99.90;;;;;;5112813;28;20401;-58
2023/07/26 08:29:48;;;;;;;2.58;1.23;;;20.00;99.90;;;;;;5111910;28;20126;-57
2023/07/26 08:32:15;;;;;;;1.48;1.05;;;20.10;99.90;;;;;;5112671;28;20170;-57
2023/07/26 08:34:40;;;;;;;1.85;1.20;;;20.30;99.90;;;;;;5111637;28;20056;-57
2023/07/26 08:37:06;;;;;;;2.53;1.52;;;20.30;99.90;;;;;;5112711;28;20040;-57
2023/07/26 08:39:32;;;;;;;2.25;1.20;;;20.70;99.90;;;;;;5112934;28;20062;-57
2023/07/26 08:41:58;;;;;;;3.05;1.00;;;20.80;99.90;;;;;;5112666;28;20389;-57
2023/07/26 08:44:24;;;;;;;3.63;1.40;;;20.90;99.90;;;;;;5112301;28;20103;-57
2023/07/26 08:46:51;;;;;;;2.13;1.20;;;21.20;99.90;;;;;;5112752;28;20035;-57
2023/07/26 08:49:17;;;;;;;2.30;1.30;;;21.10;99.90;;;;;;5112613;28;20039;-58
2023/07/26 08:51:43;;;;;;;1.42;1.25;;;21.00;99.90;;;;;;5112738;28;20370;-57
2023/07/26 08:54:10;;;;;;;2.53;1.40;;;21.10;99.90;;;;;;5111089;28;20050;-57
2023/07/26 08:56:35;;;;;;;2.42;1.98;;;21.30;99.90;;;;;;5112273;28;20076;-57
2023/07/26 08:59:02;;;;;;;3.70;2.00;;;21.20;99.90;;;;;;5112183;28;20039;-58
2023/07/26 09:01:29;;;;;;;3.20;1.77;;;21.00;99.90;;;;;;5112337;28;20047;-58
2023/07/26 09:03:54;;;;;;;4.43;2.08;;;20.90;99.90;;;;;;5112816;28;20067;-57
2023/07/26 09:06:20;;;;;;;4.18;1.75;;;20.60;99.90;;;;;;5115830;28;20066;-57
2023/07/26 09:08:46;;;;;;;2.88;2.15;;;20.80;99.90;;;;;;5116601;28;20039;-57
2023/07/26 09:11:26;;;;;;;3.40;1.95;;;20.80;99.90;;;;;;5116010;28;20032;-57
2023/07/26 09:14:02;;;;;;;4.47;1.85;;;21.00;99.90;;;;;;5115988;28;20489;-57
2023/07/26 09:16:31;;;;;;;5.40;1.98;;;20.60;99.90;;;;;;5115996;28;20050;-57
2023/07/26 09:19:04;;;;;;;2.65;1.73;;;20.90;99.90;;;;;;5116011;27;20035;-58
2023/07/26 09:21:32;;;;;;;4.50;2.10;;;21.00;99.90;;;;;;5116063;28;20092;-57
2023/07/26 09:23:59;;;;;;;3.92;2.13;;;21.20;99.90;;;;;;5115736;27;20067;-57
2023/07/26 09:26:33;;;;;;;7.10;2.08;;;21.60;99.90;;;;;;5115680;28;20055;-57
2023/07/26 09:28:58;;;;;;;2.15;1.80;;;21.50;99.90;;;;;;5115903;28;20113;-57
2023/07/26 09:31:35;;;;;;;2.85;1.65;;;21.60;99.90;;;;;;5115962;28;20122;-56
2023/07/26 09:34:06;;;;;;;3.45;1.80;;;21.70;99.90;;;;;;5115567;28;20055;-57
2023/07/26 09:36:45;;;;;;;4.35;2.03;;;22.10;99.90;;;;;;5115550;28;20432;-57
2023/07/26 09:39:12;;;;;;;2.83;1.90;;;22.20;99.90;;;;;;5115690;28;20132;-57
2023/07/26 09:41:39;;;;;;;4.78;1.77;;;22.40;99.90;;;;;;5115958;28;20426;-58
2023/07/26 09:44:06;;;;;;;2.42;1.77;;;22.30;99.90;;;;;;5115630;28;20456;-58
2023/07/26 09:46:49;;;;;;;4.32;2.03;;;22.00;99.90;;;;;;5115784;28;20035;-58
2023/07/26 09:49:16;;;;;;;6.45;2.30;;;22.10;99.90;;;;;;5115553;28;20059;-58
2023/07/26 09:51:42;;;;;;;3.50;1.75;;;22.20;99.90;;;;;;5115506;28;20101;-57
2023/07/26 09:54:10;;;;;;;3.47;2.20;;;22.90;99.90;;;;;;5115128;28;20401;-58
2023/07/26 09:56:38;;;;;;;3.13;2.17;;;22.60;99.90;;;;;;5114233;28;20095;-57
2023/07/26 09:59:10;;;;;;;7.50;2.08;;;22.50;99.90;;;;;;5115308;28;20035;-58
2023/07/26 10:01:43;;;;;;;6.05;2.15;;;21.50;99.90;;;;;;5115480;28;20035;-59
2023/07/26 10:04:14;;;;;;;5.35;2.20;;;20.70;99.90;;;;;;5115519;28;20031;-58
2023/07/26 10:06:42;;;;;;;3.72;2.20;;;20.00;99.90;;;;;;5114385;28;20161;-59
2023/07/26 10:09:17;;;;;;;5.22;2.15;;;19.80;99.90;;;;;;5115240;28;20043;-58
2023/07/26 10:11:43;;;;;;;3.75;1.90;;;19.70;99.90;;;;;;5115100;28;20035;-58
2023/07/26 10:14:11;;;;;;;2.53;1.90;;;19.70;99.90;;;;;;5115270;28;20167;-58
2023/07/26 10:16:38;;;;;;;2.92;1.98;;;19.60;99.90;;;;;;5114804;28;20032;-57
2023/07/26 10:19:05;;;;;;;4.25;1.92;;;19.50;99.90;;;;;;5114907;28;20503;-58
2023/07/26 10:21:31;;;;;;;2.17;1.73;;;19.70;99.90;;;;;;5115080;28;20035;-58
2023/07/26 10:24:01;;;;;;;2.67;1.73;;;19.70;99.90;;;;;;5115058;28;20071;-57
2023/07/26 10:26:29;;;;;;;2.20;1.70;;;19.70;99.90;;;;;;5113636;28;20445;-58
2023/07/26 10:28:59;;;;;;;2.72;1.80;;;19.60;99.90;;;;;;5115314;27;20102;-57
2023/07/26 10:31:29;;;;;;;2.83;1.63;;;19.90;99.90;;;;;;5114953;28;20042;-57
2023/07/26 10:33:56;;;;;;;2.17;1.50;;;20.20;99.90;;;;;;5115009;28;20043;-58
2023/07/26 10:36:29;;;;;;;5.05;1.75;;;20.70;99.90;;;;;;5114439;28;20118;-56
2023/07/26 10:38:54;;;;;;;2.80;1.40;;;20.70;99.90;;;;;;5113226;28;20039;-58
2023/07/26 10:41:25;;;;;;;2.35;1.73;;;20.90;99.90;;;;;;5114603;28;20039;-59
2023/07/26 10:44:02;;;;;;;3.08;1.42;;;21.00;99.90;;;;;;5113530;28;20051;-58
2023/07/26 10:46:28;;;;;;;2.15;1.50;;;21.10;99.90;;;;;;5114573;28;20074;-57
2023/07/26 10:48:53;;;;;;;1.85;1.45;;;21.10;99.90;;;;;;5114138;28;20063;-58
2023/07/26 10:51:25;;;;;;;3.58;1.42;;;21.00;99.90;;;;;;5113904;28;20040;-58
2023/07/26 10:53:53;;;;;;;1.52;1.25;;;21.00;99.90;;;;;;5114086;28;20043;-57
2023/07/26 10:56:24;;;;;;;2.30;1.65;;;20.70;99.90;;;;;;5114032;28;20032;-57
2023/07/26 10:58:56;;;;;;;2.03;1.83;;;20.50;99.90;;;;;;5114689;28;20043;-57
2023/07/26 11:01:30;;;;;;;4.53;1.08;;;20.20;99.90;;;;;;5113044;28;20078;-58
2023/07/26 11:03:57;;;;;;;0.68;0.63;;;19.60;99.90;;;;;;5114312;28;20039;-58
2023/07/26 11:06:56;;;;;;;4.25;0.80;;;19.10;99.90;;;;;;5114139;28;20040;-58
2023/07/26 11:09:27;;;;;;;3.13;1.05;;;18.20;99.90;;;;;;5114031;28;20450;-58
2023/07/26 11:11:56;;;;;;;1.73;0.70;;;17.80;99.90;;;;;;5113126;27;20082;-58
2023/07/26 11:14:24;;;;;;;2.58;0.80;;;17.30;99.90;;;;;;5114447;28;20052;-57
2023/07/26 11:16:50;;;;;;;6.40;1.45;;;16.80;99.90;;;;;;5114201;28;20051;-58
2023/07/26 11:19:16;;;;;;;3.10;1.00;;;16.50;99.90;;;;;;5112847;28;20115;-59
2023/07/26 11:21:43;;;;;;;2.33;1.02;;;16.20;99.90;;;;;;5112896;28;20048;-57
2023/07/26 11:24:10;;;;;;;3.60;0.80;;;16.10;99.90;;;;;;5113843;27;20044;-58
2023/07/26 11:26:46;;;;;;;3.35;1.10;;;16.10;99.90;;;;;;5113585;28;20280;-59
2023/07/26 11:29:13;;;;;;;2.65;1.13;;;16.00;99.90;;;;;;5113405;28;20031;-58
2023/07/26 11:31:39;;;;;;;2.00;1.13;;;16.00;99.90;;;;;;5112502;28;20051;-57
2023/07/26 11:34:22;;;;;;;2.70;1.17;;;16.10;99.90;;;;;;5113695;28;20044;-58
2023/07/26 11:36:47;;;;;;;2.17;1.30;;;16.10;99.90;;;;;;5089656;28;20044;-58
2023/07/26 11:39:25;;;;;;;1.88;1.50;;;16.20;99.90;;;;;;5113834;28;20427;-57
2023/07/26 11:41:51;;;;;;;3.17;1.38;;;16.20;99.90;;;;;;5093653;28;20036;-56
2023/07/26 11:44:20;;;;;;;2.55;1.20;;;16.30;99.90;;;;;;5113113;28;20104;-57
2023/07/26 11:46:46;;;;;;;4.95;1.40;;;16.40;99.90;;;;;;5113226;28;20362;-58
2023/07/26 11:49:21;;;;;;;3.45;1.30;;;16.60;99.90;;;;;;5113036;28;20061;-58
2023/07/26 11:51:50;;;;;;;4.22;1.15;;;17.00;99.90;;;;;;5113003;28;20039;-58
2023/07/26 11:54:16;;;;;;;1.95;1.35;;;17.20;99.90;;;;;;5113461;28;20351;-58
2023/07/26 11:56:43;;;;;;;2.17;0.93;;;17.50;99.90;;;;;;5113408;28;20038;-57
2023/07/26 11:59:09;;;;;;;2.25;1.35;;;17.90;99.90;;;;;;5113250;28;20042;-58
2023/07/26 12:01:36;;;;;;;3.08;1.20;;;18.10;99.90;;;;;;5112941;28;20042;-59
2023/07/26 12:04:22;;;;;;;1.63;1.17;;;18.40;99.90;;;;;;5113087;28;20064;-59
2023/07/26 12:06:48;;;;;;;1.08;0.82;;;18.50;99.90;;;;;;5111636;28;20097;-58
2023/07/26 12:09:14;;;;;;;2.55;1.10;;;18.40;99.90;;;;;;5113451;28;20420;-58
2023/07/26 12:11:49;;;;;;;2.75;1.02;;;18.50;99.90;;;;;;5113391;28;20039;-57
2023/07/26 12:14:16;;;;;;;4.00;1.42;;;18.70;99.90;;;;;;5113318;28;20511;-58
2023/07/26 12:16:50;;;;;;;2.58;1.10;;;18.80;99.90;;;;;;5112067;28;20048;-58
2023/07/26 12:19:23;;;;;;;1.80;1.13;;;19.00;99.90;;;;;;5113198;28;20036;-59
2023/07/26 12:21:50;;;;;;;1.33;1.08;;;19.30;99.90;;;;;;5113036;28;20035;-58
2023/07/26 12:24:15;;;;;;;2.25;1.20;;;19.50;99.90;;;;;;5112903;28;20488;-58
2023/07/26 12:26:47;;;;;;;3.67;0.95;;;19.70;99.90;;;;;;5112565;28;20055;-58
2023/07/26 12:29:14;;;;;;;1.55;1.02;;;19.70;99.90;;;;;;5112600;28;20049;-58
2023/07/26 12:31:39;;;;;;;2.10;1.00;;;19.60;99.90;;;;;;5112929;28;20036;-58
2023/07/26 12:34:10;;;;;;;1.90;1.10;;;19.50;99.90;;;;;;5112552;28;20044;-58
2023/07/26 12:36:44;;;;;;;2.50;1.13;;;19.50;99.90;;;;;;5086213;28;20046;-58
2023/07/26 12:39:12;;;;;;;4.82;1.05;;;19.60;99.90;;;;;;5112831;28;20088;-57
2023/07/26 12:41:39;;;;;;;6.70;1.55;;;19.80;99.90;;;;;;5116693;28;20028;-57
2023/07/26 12:44:06;;;;;;;1.63;1.13;;;20.00;99.90;;;;;;5116883;28;20046;-57
2023/07/26 12:46:32;;;;;;;4.70;1.10;;;19.90;99.90;;;;;;5116615;28;20043;-58